Time;durP1;ratioP1;P1;durP2;ratioP2;P2;SDS_P1;SDS_P2;PMS_P1;PMS_P2;Temp;Humidity;BMP_temperature;BMP_pressure;BME280_temperature;BME280_humidity;BME280_pressure;Samples;Min_cycle;Max_cycle;Signal;HPM_P1;HPM_P2
2021/01/21 00:00:21;;;;;;;24.70;12.43;;;;;;;2.49;60.94;95234.28;5095285;28;20170;-74
2021/01/21 00:02:47;;;;;;;24.00;11.50;;;;;;;2.64;60.72;95224.31;5095366;28;20200;-73
2021/01/21 00:05:12;;;;;;;33.13;14.13;;;;;;;2.38;61.79;95231.00;5095055;28;20165;-74
2021/01/21 00:07:38;;;;;;;25.67;12.73;;;;;;;2.42;61.61;95234.66;5095272;28;20170;-74
2021/01/21 00:10:04;;;;;;;24.13;11.57;;;;;;;2.19;61.92;95211.75;5095078;28;20239;-76
2021/01/21 00:12:29;;;;;;;22.85;12.45;;;;;;;2.46;61.49;95240.13;5086579;28;20174;-74
2021/01/21 00:14:55;;;;;;;32.03;12.67;;;;;;;2.23;62.43;95237.25;5094773;28;20255;-74
2021/01/21 00:17:20;;;;;;;24.60;12.53;;;;;;;2.59;61.08;95223.63;5094877;28;20181;-73
2021/01/21 00:19:46;;;;;;;26.40;13.03;;;;;;;2.29;61.99;95243.25;5093054;28;20214;-74
2021/01/21 00:22:11;;;;;;;31.27;13.23;;;;;;;2.32;62.49;95229.50;5094907;28;20261;-74
2021/01/21 00:24:37;;;;;;;27.27;13.87;;;;;;;2.16;62.33;95236.81;5094945;28;20171;-74
2021/01/21 00:27:02;;;;;;;27.93;13.40;;;;;;;2.01;63.15;95235.16;5094426;28;20181;-73
2021/01/21 00:29:28;;;;;;;25.20;12.67;;;;;;;1.82;62.88;95247.50;5094640;28;20205;-75
2021/01/21 00:31:53;;;;;;;26.17;13.53;;;;;;;1.67;63.45;95239.75;5094535;28;20181;-74
2021/01/21 00:34:19;;;;;;;26.63;13.63;;;;;;;2.17;61.92;95233.13;5094719;28;20170;-75
2021/01/21 00:36:44;;;;;;;27.93;13.27;;;;;;;1.87;62.39;95230.88;5094213;28;20213;-73
2021/01/21 00:39:10;;;;;;;32.57;15.23;;;;;;;1.88;62.80;95232.44;5094514;28;20178;-74
2021/01/21 00:41:35;;;;;;;31.27;14.07;;;;;;;2.15;61.90;95214.19;5094570;28;20171;-78
2021/01/21 00:44:01;;;;;;;26.63;13.10;;;;;;;2.27;61.68;95224.31;5094248;28;20592;-75
2021/01/21 00:46:26;;;;;;;31.97;13.83;;;;;;;1.76;63.29;95230.97;5094294;28;20255;-75
2021/01/21 00:48:52;;;;;;;29.53;14.10;;;;;;;1.62;64.23;95222.16;5094321;28;20248;-75
2021/01/21 00:51:19;;;;;;;31.27;14.77;;;;;;;1.77;63.92;95216.75;5094258;28;20603;-75
2021/01/21 00:53:46;;;;;;;29.92;14.02;;;;;;;2.00;62.98;95227.53;5094139;28;20244;-75
2021/01/21 00:56:11;;;;;;;30.80;14.63;;;;;;;1.58;63.47;95214.06;5094201;28;20202;-75
2021/01/21 00:58:37;;;;;;;24.60;13.67;;;;;;;1.75;64.05;95220.72;5093774;28;20212;-75
2021/01/21 01:01:02;;;;;;;31.73;16.13;;;;;;;2.14;61.99;95212.63;5094118;28;20193;-75
2021/01/21 01:03:28;;;;;;;30.57;14.77;;;;;;;1.90;62.77;95217.13;5093770;28;20663;-75
2021/01/21 01:05:53;;;;;;;24.60;13.73;;;;;;;1.76;63.83;95212.53;5093693;28;20166;-74
2021/01/21 01:08:19;;;;;;;30.97;15.53;;;;;;;1.97;62.57;95201.78;5093684;28;20202;-73
2021/01/21 01:10:44;;;;;;;31.63;15.50;;;;;;;1.68;63.48;95202.63;5093945;28;20194;-74
2021/01/21 01:13:10;;;;;;;32.07;15.03;;;;;;;1.82;63.77;95203.50;5093733;28;20594;-76
2021/01/21 01:15:35;;;;;;;32.63;14.90;;;;;;;1.95;62.51;95202.03;5093577;28;20171;-75
2021/01/21 01:18:01;;;;;;;34.00;14.07;;;;;;;1.75;63.10;95184.66;5093985;28;20201;-73
2021/01/21 01:20:26;;;;;;;34.57;17.13;;;;;;;1.38;64.46;95197.69;5093513;28;20539;-74
2021/01/21 01:22:52;;;;;;;27.43;14.37;;;;;;;1.36;65.50;95199.81;5093655;28;20171;-75
2021/01/21 01:25:18;;;;;;;28.33;14.32;;;;;;;1.56;63.96;95197.75;5093340;28;20229;-74
2021/01/21 01:27:44;;;;;;;35.90;13.73;;;;;;;1.58;63.99;95192.22;5093399;28;20182;-76
2021/01/21 01:30:13;;;;;;;30.03;15.10;;;;;;;1.36;64.58;95187.44;5093287;28;20170;-74
2021/01/21 01:32:38;;;;;;;26.55;14.98;;;;;;;1.50;64.50;95190.19;5093811;28;20162;-75
2021/01/21 01:35:05;;;;;;;27.33;14.37;;;;;;;1.65;63.82;95178.72;5093150;28;20182;-74
2021/01/21 01:37:30;;;;;;;31.73;15.23;;;;;;;1.71;64.03;95194.16;5093326;28;20483;-74
2021/01/21 01:39:56;;;;;;;30.03;15.03;;;;;;;1.64;64.01;95183.19;5093277;28;20673;-74
2021/01/21 01:42:21;;;;;;;30.93;13.67;;;;;;;1.66;63.95;95186.31;5093119;28;20215;-74
2021/01/21 01:44:47;;;;;;;28.17;14.60;;;;;;;1.28;65.16;95188.81;5093096;28;20231;-74
2021/01/21 01:47:12;;;;;;;34.53;16.23;;;;;;;1.78;63.73;95185.94;5093057;28;20170;-74
2021/01/21 01:49:38;;;;;;;29.13;14.83;;;;;;;1.28;65.46;95201.97;5093029;28;20494;-74
2021/01/21 01:52:04;;;;;;;30.10;15.80;;;;;;;1.41;65.61;95194.50;5092965;28;20167;-75
2021/01/21 01:54:29;;;;;;;31.37;15.27;;;;;;;1.52;64.85;95201.25;5093138;28;20214;-76
2021/01/21 01:56:56;;;;;;;33.13;16.57;;;;;;;1.22;65.61;95189.94;5092856;28;20166;-74
2021/01/21 01:59:21;;;;;;;35.50;17.13;;;;;;;1.47;65.46;95180.25;5092852;28;20170;-74
2021/01/21 02:01:47;;;;;;;34.90;16.97;;;;;;;1.24;65.82;95190.47;5074614;28;20676;-73
2021/01/21 02:04:12;;;;;;;33.50;16.53;;;;;;;1.52;65.62;95180.19;5075121;28;20256;-74
2021/01/21 02:06:38;;;;;;;41.30;19.03;;;;;;;1.73;64.74;95168.34;5074665;28;20638;-74
2021/01/21 02:09:03;;;;;;;40.53;18.13;;;;;;;1.32;65.83;95181.16;5092568;28;20198;-73
2021/01/21 02:11:50;;;;;;;31.90;16.80;;;;;;;1.12;66.51;95182.13;5074786;28;20166;-74
2021/01/21 02:14:37;;;;;;;36.40;18.73;;;;;;;1.35;65.50;95169.28;5092414;28;20194;-73
2021/01/21 02:17:05;;;;;;;32.10;16.48;;;;;;;1.04;66.34;95161.72;5073853;28;20174;-75
2021/01/21 02:20:16;;;;;;;37.65;16.20;;;;;;;0.90;66.57;95176.56;5074600;28;20585;-74
2021/01/21 02:23:19;;;;;;;30.45;15.05;;;;;;;1.04;66.39;95180.13;5077440;28;20198;-74
2021/01/21 02:25:52;;;;;;;27.77;13.45;;;;;;;1.07;65.81;95174.31;5092215;28;20202;-74
2021/01/21 02:28:44;;;;;;;29.40;14.50;;;;;;;1.43;64.67;95152.91;5058112;28;20212;-72
2021/01/21 02:31:54;;;;;;;32.38;15.60;;;;;;;1.44;64.67;95170.25;5077006;28;20169;-73
2021/01/21 02:34:30;;;;;;;34.88;16.83;;;;;;;1.58;64.91;95168.53;5092356;28;20174;-74
2021/01/21 02:36:56;;;;;;;36.70;16.02;;;;;;;1.22;65.54;95176.78;5058667;28;20214;-74
2021/01/21 02:39:22;;;;;;;37.47;17.13;;;;;;;1.11;66.33;95169.28;5073526;28;20182;-73
2021/01/21 02:41:48;;;;;;;38.25;16.63;;;;;;;0.90;67.19;95158.97;5074336;28;20553;-74
2021/01/21 02:44:14;;;;;;;35.90;16.00;;;;;;;1.30;65.91;95178.81;5073950;28;20206;-72
2021/01/21 02:46:39;;;;;;;31.70;16.03;;;;;;;1.54;65.12;95160.41;5092020;28;20634;-74
2021/01/21 02:49:05;;;;;;;31.53;15.83;;;;;;;1.50;64.87;95161.25;5073728;28;20244;-73
2021/01/21 02:51:40;;;;;;;25.70;14.20;;;;;;;1.40;64.57;95167.38;5073847;28;20647;-73
2021/01/21 02:54:14;;;;;;;28.92;13.75;;;;;;;1.50;64.78;95172.56;5073151;28;20185;-74
2021/01/21 02:56:40;;;;;;;28.85;14.45;;;;;;;1.29;65.47;95179.91;5091891;28;20173;-74
2021/01/21 02:59:05;;;;;;;29.80;13.70;;;;;;;1.38;64.72;95159.00;5056982;28;20768;-73
2021/01/21 03:01:34;;;;;;;26.03;14.10;;;;;;;1.37;64.88;95156.66;5073777;28;20586;-74
2021/01/21 03:04:01;;;;;;;24.42;13.25;;;;;;;1.36;64.72;95161.13;5073612;28;20170;-74
2021/01/21 03:06:26;;;;;;;23.85;13.27;;;;;;;1.74;63.70;95167.28;5073475;28;20186;-73
2021/01/21 03:08:52;;;;;;;27.30;12.57;;;;;;;1.35;64.66;95162.22;5091392;28;20193;-74
2021/01/21 03:11:17;;;;;;;33.67;14.57;;;;;;;1.55;64.54;95164.59;5073813;28;20197;-73
2021/01/21 03:13:46;;;;;;;29.93;16.03;;;;;;;1.47;64.49;95154.69;5091400;28;20228;-75
2021/01/21 03:16:12;;;;;;;30.23;13.70;;;;;;;1.39;65.43;95162.41;5091684;28;20166;-74
2021/01/21 03:18:37;;;;;;;28.05;15.38;;;;;;;1.42;64.89;95165.28;5091642;28;20174;-74
2021/01/21 03:21:03;;;;;;;30.73;14.27;;;;;;;1.24;65.47;95172.06;5091451;28;20178;-74
2021/01/21 03:23:29;;;;;;;28.10;15.57;;;;;;;1.38;64.75;95163.47;5091545;28;20633;-74
2021/01/21 03:25:54;;;;;;;37.20;17.77;;;;;;;1.11;65.73;95169.28;5091365;28;20170;-76
2021/01/21 03:28:20;;;;;;;36.23;16.37;;;;;;;1.48;64.66;95169.44;5091909;28;20206;-74
2021/01/21 03:30:45;;;;;;;32.47;16.87;;;;;;;1.10;65.65;95180.88;5095636;28;20177;-73
2021/01/21 03:33:11;;;;;;;28.27;14.80;;;;;;;1.27;65.89;95182.00;5095967;28;20174;-74
2021/01/21 03:35:37;;;;;;;29.73;15.60;;;;;;;1.52;65.03;95178.34;5077578;28;20166;-74
2021/01/21 03:38:02;;;;;;;35.30;16.47;;;;;;;1.61;64.12;95188.22;5095514;28;20298;-73
2021/01/21 03:40:28;;;;;;;30.33;15.97;;;;;;;1.32;65.29;95189.84;5060503;28;20243;-73
2021/01/21 03:42:53;;;;;;;31.13;16.13;;;;;;;0.98;66.33;95187.28;5095977;28;20170;-74
2021/01/21 03:45:19;;;;;;;30.50;14.83;;;;;;;1.37;65.55;95190.88;5095776;28;20171;-74
2021/01/21 03:47:44;;;;;;;29.70;14.83;;;;;;;1.04;65.38;95172.22;5095362;28;20530;-74
2021/01/21 03:50:11;;;;;;;29.17;14.53;;;;;;;0.87;65.99;95185.78;5077710;28;20549;-75
2021/01/21 03:52:36;;;;;;;31.10;14.63;;;;;;;1.08;65.25;95175.88;5095148;28;20271;-72
2021/01/21 03:55:02;;;;;;;37.73;16.43;;;;;;;1.07;66.00;95174.31;5095185;28;20203;-75
2021/01/21 03:57:27;;;;;;;37.70;16.43;;;;;;;1.22;65.73;95184.69;5095196;28;20523;-76
2021/01/21 03:59:53;;;;;;;31.63;16.60;;;;;;;1.22;64.65;95176.78;5095453;28;20639;-75
2021/01/21 04:02:18;;;;;;;32.80;15.00;;;;;;;1.17;64.82;95179.47;5095031;28;20183;-76
2021/01/21 04:04:44;;;;;;;31.77;15.93;;;;;;;1.42;64.29;95181.06;5095328;28;20197;-74
2021/01/21 04:07:09;;;;;;;26.83;13.00;;;;;;;1.26;64.96;95177.81;5095147;28;20181;-75
2021/01/21 04:09:35;;;;;;;27.07;15.43;;;;;;;1.23;65.07;95177.56;5094740;28;20227;-75
2021/01/21 04:12:00;;;;;;;30.23;15.53;;;;;;;1.19;64.95;95174.72;5094963;28;20312;-74
2021/01/21 04:14:26;;;;;;;39.00;18.00;;;;;;;0.91;66.30;95192.06;5094483;28;20170;-76
2021/01/21 04:16:51;;;;;;;38.87;17.20;;;;;;;1.35;64.74;95178.00;5094973;28;20190;-74
2021/01/21 04:19:17;;;;;;;37.70;16.87;;;;;;;0.88;66.52;95189.19;5094711;28;20224;-73
2021/01/21 04:21:42;;;;;;;38.60;18.17;;;;;;;0.94;66.70;95191.50;5094786;28;20638;-76
2021/01/21 04:24:08;;;;;;;40.80;19.13;;;;;;;0.84;67.32;95194.22;5094605;28;20177;-72
2021/01/21 04:26:33;;;;;;;43.50;19.33;;;;;;;0.98;67.04;95199.63;5094546;28;20181;-73
2021/01/21 04:28:59;;;;;;;39.10;19.90;;;;;;;1.13;66.30;95196.88;5094269;28;20197;-74
2021/01/21 04:31:24;;;;;;;38.97;19.20;;;;;;;1.09;66.03;95203.75;5094766;28;20185;-74
2021/01/21 04:33:50;;;;;;;45.20;20.90;;;;;;;1.34;65.28;95194.81;5094790;28;20170;-76
2021/01/21 04:36:15;;;;;;;39.53;18.07;;;;;;;0.79;66.78;95195.06;5094491;28;20178;-74
2021/01/21 04:38:41;;;;;;;47.17;19.50;;;;;;;0.95;67.02;95194.91;5094418;28;20690;-73
2021/01/21 04:41:06;;;;;;;37.57;19.07;;;;;;;0.71;67.41;95208.78;5093466;28;20182;-73
2021/01/21 04:43:32;;;;;;;39.90;19.23;;;;;;;0.82;67.38;95201.59;5076426;28;20166;-74
2021/01/21 04:45:57;;;;;;;42.40;19.67;;;;;;;0.91;66.76;95209.69;5094188;28;20217;-73
2021/01/21 04:48:23;;;;;;;45.10;18.90;;;;;;;1.06;66.41;95209.53;5094520;28;20221;-74
2021/01/21 04:50:48;;;;;;;36.20;18.27;;;;;;;0.64;67.44;95200.44;5058865;28;20597;-75
2021/01/21 04:53:16;;;;;;;34.70;17.83;;;;;;;1.02;67.21;95219.06;5075498;28;20175;-73
2021/01/21 04:55:46;;;;;;;41.58;19.88;;;;;;;0.97;66.68;95196.22;5094225;28;20643;-74
2021/01/21 04:58:30;;;;;;;43.30;21.15;;;;;;;1.11;66.14;95211.34;5084830;28;20654;-73
2021/01/21 05:00:56;;;;;;;47.28;21.88;;;;;;;1.02;66.92;95206.72;5096431;28;20688;-73
2021/01/21 05:03:21;;;;;;;41.90;21.00;;;;;;;1.19;65.92;95206.28;5095662;28;20181;-76
2021/01/21 05:05:47;;;;;;;42.57;22.17;;;;;;;0.81;67.02;95199.25;5095203;28;20193;-73
2021/01/21 05:08:13;;;;;;;42.33;21.37;;;;;;;1.04;66.46;95195.91;5076297;28;20189;-72
2021/01/21 05:10:38;;;;;;;47.23;21.47;;;;;;;1.06;66.76;95199.03;5087238;28;20209;-73
2021/01/21 05:13:04;;;;;;;33.37;18.10;;;;;;;1.43;65.17;95203.69;5075606;28;20186;-73
2021/01/21 05:15:29;;;;;;;41.80;19.70;;;;;;;0.92;66.39;95198.13;5075723;28;20194;-73
2021/01/21 05:17:55;;;;;;;48.03;19.63;;;;;;;1.21;65.89;95188.38;5093618;28;20216;-73
2021/01/21 05:20:23;;;;;;;42.50;18.43;;;;;;;0.86;66.74;95175.56;5075733;28;20642;-76
2021/01/21 05:22:54;;;;;;;42.67;19.27;;;;;;;0.99;66.99;95193.31;5093479;28;20550;-74
2021/01/21 05:25:20;;;;;;;37.55;18.75;;;;;;;1.12;66.03;95200.56;5059587;28;20178;-76
2021/01/21 05:27:45;;;;;;;38.13;19.60;;;;;;;1.06;67.03;95199.81;5075149;28;20209;-74
2021/01/21 05:30:11;;;;;;;41.00;19.87;;;;;;;1.18;66.34;95199.47;5058824;28;20175;-74
2021/01/21 05:32:37;;;;;;;40.80;18.15;;;;;;;1.31;65.35;95182.25;5058500;28;20209;-75
2021/01/21 05:35:03;;;;;;;40.73;19.80;;;;;;;1.40;65.18;95190.28;5075389;28;20638;-75
2021/01/21 05:37:28;;;;;;;37.83;17.70;;;;;;;1.24;65.33;95192.31;5083069;28;20224;-77
2021/01/21 05:39:54;;;;;;;45.07;20.10;;;;;;;0.90;67.31;95202.84;5112193;28;20170;-74
2021/01/21 05:42:19;;;;;;;42.27;21.83;;;;;;;1.21;66.14;95184.97;5112472;28;20170;-75
2021/01/21 05:44:45;;;;;;;43.73;20.57;;;;;;;0.93;66.91;95194.41;5113298;28;20238;-75
2021/01/21 05:47:10;;;;;;;40.87;20.93;;;;;;;0.90;67.21;95201.03;5113882;28;20185;-76
2021/01/21 05:49:36;;;;;;;39.30;19.73;;;;;;;1.12;66.58;95181.34;5113839;28;20205;-74
2021/01/21 05:52:02;;;;;;;44.90;21.00;;;;;;;1.10;66.65;95183.50;5110886;28;20182;-75
2021/01/21 05:54:28;;;;;;;42.87;19.37;;;;;;;0.76;68.27;95192.97;5113173;28;20180;-74
2021/01/21 05:56:55;;;;;;;33.15;18.25;;;;;;;1.11;66.98;95187.69;5113278;28;20234;-75
2021/01/21 05:59:24;;;;;;;42.20;18.45;;;;;;;1.25;66.42;95189.41;5113334;28;20182;-75
2021/01/21 06:01:51;;;;;;;42.22;18.67;;;;;;;1.45;65.50;95187.59;5112170;28;20174;-76
2021/01/21 06:04:17;;;;;;;38.20;16.95;;;;;;;1.38;66.04;95198.47;5096050;28;20208;-74
2021/01/21 06:06:43;;;;;;;32.75;16.35;;;;;;;1.39;65.43;95191.34;5113565;28;20550;-73
2021/01/21 06:09:15;;;;;;;36.97;16.38;;;;;;;1.48;65.81;95202.84;5112227;28;20201;-75
2021/01/21 06:11:41;;;;;;;35.85;17.90;;;;;;;1.29;66.42;95182.53;5112772;28;20252;-74
2021/01/21 06:14:07;;;;;;;35.35;18.88;;;;;;;1.17;66.05;95195.25;5113171;28;20591;-74
2021/01/21 06:16:33;;;;;;;35.13;18.03;;;;;;;1.23;66.73;95188.88;5112450;28;20174;-73
2021/01/21 06:18:58;;;;;;;43.37;21.60;;;;;;;0.89;67.34;95209.16;5111821;28;20174;-74
2021/01/21 06:21:25;;;;;;;51.03;22.67;;;;;;;1.18;67.03;95211.81;5111545;28;20165;-74
2021/01/21 06:24:01;;;;;;;40.17;22.13;;;;;;;1.24;66.29;95205.47;5112970;27;20581;-74
2021/01/21 06:26:28;;;;;;;41.10;21.92;;;;;;;1.27;66.11;95191.75;5111365;28;20181;-74
2021/01/21 06:28:54;;;;;;;35.88;19.65;;;;;;;1.09;66.82;95203.75;5094848;28;20221;-74
2021/01/21 06:31:19;;;;;;;41.40;18.83;;;;;;;1.06;67.91;95199.03;5094424;28;20185;-75
2021/01/21 06:33:45;;;;;;;43.90;19.70;;;;;;;1.32;66.99;95207.47;5111504;28;20174;-73
2021/01/21 06:36:13;;;;;;;36.17;19.20;;;;;;;1.29;67.04;95208.03;5094246;28;20250;-74
2021/01/21 06:38:39;;;;;;;39.20;19.25;;;;;;;1.33;66.79;95201.16;5111471;27;20225;-74
2021/01/21 06:41:10;;;;;;;42.65;20.85;;;;;;;1.39;66.65;95217.66;5124422;27;20170;-73
2021/01/21 06:43:36;;;;;;;41.80;19.95;;;;;;;1.00;67.73;95219.31;5112878;27;20236;-73
2021/01/21 06:46:02;;;;;;;44.33;21.80;;;;;;;0.72;68.63;95218.22;5129989;27;20176;-72
2021/01/21 06:48:28;;;;;;;46.20;21.10;;;;;;;1.05;68.16;95207.97;5132695;27;20260;-73
2021/01/21 06:50:53;;;;;;;43.67;20.73;;;;;;;1.47;66.53;95209.97;5119518;27;20565;-73
2021/01/21 06:53:19;;;;;;;38.73;19.97;;;;;;;1.45;66.81;95203.41;5112003;28;20200;-74
2021/01/21 06:55:49;;;;;;;39.20;19.07;;;;;;;1.70;65.50;95189.97;5094040;28;20250;-73
2021/01/21 06:58:14;;;;;;;45.05;21.48;;;;;;;1.95;65.22;95193.34;5110669;28;20689;-73
2021/01/21 07:00:41;;;;;;;53.53;22.63;;;;;;;1.49;66.33;95194.66;5120212;27;20201;-74
2021/01/21 07:03:08;;;;;;;51.63;25.17;;;;;;;1.72;65.97;95200.22;5132106;27;20685;-74
2021/01/21 07:05:33;;;;;;;61.95;27.27;;;;;;;1.50;67.06;95198.88;5131400;27;20641;-74
2021/01/21 07:08:00;;;;;;;64.57;28.63;;;;;;;1.62;66.36;95182.69;5132227;27;20179;-74
2021/01/21 07:10:42;;;;;;;70.57;28.98;;;;;;;1.68;66.65;95196.56;5131700;27;20300;-73
2021/01/21 07:13:13;;;;;;;67.40;31.80;;;;;;;1.67;65.86;95200.28;5129415;27;20181;-72
2021/01/21 07:15:49;;;;;;;71.90;32.85;;;;;;;1.73;65.73;95217.56;5130893;27;20172;-72
2021/01/21 07:18:19;;;;;;;68.40;31.50;;;;;;;1.59;66.39;95186.66;5110125;27;20184;-72
2021/01/21 07:21:00;;;;;;;75.20;33.67;;;;;;;1.79;65.73;95230.41;5128155;27;20183;-73
2021/01/21 07:23:44;;;;;;;74.60;34.42;;;;;;;1.78;66.08;95199.09;5153127;27;20175;-72
2021/01/21 07:26:35;;;;;;;73.80;34.90;;;;;;;1.67;66.31;95203.69;5153168;27;20207;-73
2021/01/21 07:29:03;;;;;;;74.40;35.00;;;;;;;1.72;66.38;95234.44;5152947;27;20239;-73
2021/01/21 07:31:30;;;;;;;76.20;35.80;;;;;;;1.94;65.94;95205.75;5152778;27;20164;-74
2021/01/21 07:34:20;;;;;;;77.03;35.15;;;;;;;2.14;64.62;95215.25;5134599;27;20172;-74
2021/01/21 07:36:46;;;;;;;75.18;33.97;;;;;;;2.05;64.59;95219.56;5152480;27;20172;-76
2021/01/21 07:39:11;;;;;;;72.70;32.97;;;;;;;2.09;64.51;95226.63;5153067;27;20180;-72
2021/01/21 07:41:43;;;;;;;73.77;33.97;;;;;;;2.39;63.35;95230.72;5152820;27;20615;-74
2021/01/21 07:44:09;;;;;;;73.18;30.42;;;;;;;2.34;63.11;95216.81;5152813;27;20605;-74
2021/01/21 07:46:34;;;;;;;66.80;30.50;;;;;;;2.25;63.83;95216.69;5152787;27;20176;-77
2021/01/21 07:49:27;;;;;;;71.57;33.43;;;;;;;2.25;64.33;95224.59;5134376;27;20203;-74
2021/01/21 07:52:05;;;;;;;79.50;34.50;;;;;;;2.24;64.38;95217.75;5088885;28;20186;-74
2021/01/21 07:54:31;;;;;;;82.07;35.35;;;;;;;2.50;63.46;95209.50;5088956;28;20167;-74
2021/01/21 07:56:57;;;;;;;70.72;33.17;;;;;;;2.36;63.61;95219.97;5088902;28;20171;-75
2021/01/21 07:59:22;;;;;;;67.87;34.03;;;;;;;2.43;63.79;95217.75;5089103;28;20565;-74
2021/01/21 08:01:57;;;;;;;76.37;35.77;;;;;;;2.61;62.82;95218.81;5088948;28;20556;-74
2021/01/21 08:04:23;;;;;;;71.95;32.15;;;;;;;2.27;63.89;95211.91;5088446;28;20186;-74
2021/01/21 08:06:57;;;;;;;61.50;31.27;;;;;;;2.44;63.75;95215.91;5072027;28;20261;-74
2021/01/21 08:09:24;;;;;;;67.57;31.83;;;;;;;2.68;62.98;95215.81;5088848;28;20220;-74
2021/01/21 08:11:50;;;;;;;53.97;26.77;;;;;;;2.82;62.43;95199.00;5088852;28;20178;-73
2021/01/21 08:14:16;;;;;;;50.88;25.55;;;;;;;2.91;62.07;95204.38;5088774;28;20199;-73
2021/01/21 08:16:43;;;;;;;52.38;25.83;;;;;;;2.90;62.02;95208.88;5091203;28;20183;-74
2021/01/21 08:19:08;;;;;;;56.78;24.70;;;;;;;3.01;62.02;95193.69;5092683;28;20185;-75
2021/01/21 08:21:34;;;;;;;59.83;24.03;;;;;;;2.92;62.35;95217.31;5092923;28;20198;-74
2021/01/21 08:24:00;;;;;;;47.47;21.10;;;;;;;2.83;62.74;95213.75;5092467;28;20169;-73
2021/01/21 08:26:26;;;;;;;39.67;19.30;;;;;;;3.01;62.09;95224.56;5092669;28;20193;-74
2021/01/21 08:28:52;;;;;;;38.75;19.38;;;;;;;3.05;61.98;95207.88;5125996;27;20468;-74
2021/01/21 08:31:18;;;;;;;33.50;18.10;;;;;;;3.08;61.97;95206.50;5156369;27;20160;-74
2021/01/21 08:33:43;;;;;;;36.20;18.07;;;;;;;2.92;61.88;95209.41;5120454;27;20164;-73
2021/01/21 08:36:09;;;;;;;34.60;15.67;;;;;;;3.23;60.98;95200.97;5120467;27;20221;-74
2021/01/21 08:38:36;;;;;;;35.43;16.40;;;;;;;3.09;61.25;95227.31;5155549;27;20254;-73
2021/01/21 08:41:02;;;;;;;30.48;15.15;;;;;;;3.44;60.32;95191.63;5103159;27;20765;-74
2021/01/21 08:43:28;;;;;;;29.50;15.05;;;;;;;3.38;60.53;95224.47;5155818;27;20172;-74
2021/01/21 08:45:53;;;;;;;30.07;14.60;;;;;;;3.30;60.22;95209.28;5137582;27;20175;-74
2021/01/21 08:48:31;;;;;;;29.73;14.53;;;;;;;3.60;59.02;95223.81;5155950;27;20192;-73
2021/01/21 08:50:57;;;;;;;25.45;12.20;;;;;;;3.53;58.97;95214.69;5156081;27;20546;-74
2021/01/21 08:53:27;;;;;;;28.13;13.03;;;;;;;3.74;58.98;95217.75;5136578;27;20184;-74
2021/01/21 08:55:53;;;;;;;23.73;11.30;;;;;;;3.70;58.38;95226.28;5155907;27;20712;-73
2021/01/21 08:58:32;;;;;;;24.77;11.93;;;;;;;3.99;57.76;95214.63;5155658;27;20188;-74
2021/01/21 09:01:11;;;;;;;20.45;9.80;;;;;;;3.81;56.69;95218.13;5155758;27;20258;-73
2021/01/21 09:03:38;;;;;;;19.20;9.88;;;;;;;4.06;56.49;95208.94;5155190;27;20253;-73
2021/01/21 09:06:05;;;;;;;18.77;9.15;;;;;;;4.16;55.70;95212.16;5155759;27;20174;-72
2021/01/21 09:08:32;;;;;;;16.88;10.40;;;;;;;4.15;55.52;95213.25;5154106;27;20239;-74
2021/01/21 09:10:58;;;;;;;26.23;12.48;;;;;;;4.27;55.53;95196.88;5137536;27;20196;-72
2021/01/21 09:13:23;;;;;;;28.30;13.97;;;;;;;4.14;56.28;95214.28;5136933;27;20698;-73
2021/01/21 09:15:52;;;;;;;25.83;10.47;;;;;;;4.32;55.58;95196.78;5136462;27;20211;-75
2021/01/21 09:18:19;;;;;;;28.08;11.15;;;;;;;4.20;55.55;95221.03;5137227;27;20592;-73
2021/01/21 09:20:46;;;;;;;28.52;10.82;;;;;;;4.35;55.82;95198.81;5155019;27;20188;-73
2021/01/21 09:23:20;;;;;;;21.15;10.35;;;;;;;4.38;56.18;95221.25;5136981;27;20184;-73
2021/01/21 09:25:46;;;;;;;21.70;10.63;;;;;;;4.55;54.70;95194.16;5136907;27;20172;-73
2021/01/21 09:28:13;;;;;;;22.10;10.90;;;;;;;4.67;53.99;95197.84;5154984;27;20560;-73
2021/01/21 09:30:38;;;;;;;23.75;10.38;;;;;;;4.75;54.82;95207.69;5154894;27;20176;-73
2021/01/21 09:33:04;;;;;;;22.57;10.27;;;;;;;4.62;55.50;95205.09;5154908;27;20183;-73
2021/01/21 09:35:29;;;;;;;25.53;12.53;;;;;;;4.82;53.84;95183.47;5154851;27;20168;-73
2021/01/21 09:37:56;;;;;;;25.20;11.50;;;;;;;4.54;55.31;95182.78;5154741;27;20618;-74
2021/01/21 09:40:34;;;;;;;25.00;11.50;;;;;;;4.83;55.21;95185.03;5154650;27;20183;-73
2021/01/21 09:43:04;;;;;;;28.48;11.30;;;;;;;4.72;54.67;95175.78;5154768;27;20672;-73
2021/01/21 09:45:30;;;;;;;26.67;10.98;;;;;;;4.45;55.75;95171.38;5154523;27;20164;-78
2021/01/21 09:47:55;;;;;;;24.17;11.40;;;;;;;10.26;78.23;95176.75;5154577;27;20172;-76
2021/01/21 09:50:21;;;;;;;27.70;12.77;;;;;;;10.85;67.58;95165.50;5135543;27;20241;-78
2021/01/21 09:52:47;;;;;;;23.17;12.43;;;;;;;9.78;54.02;95180.94;5154820;27;20175;-75
2021/01/21 09:55:12;;;;;;;23.57;12.90;;;;;;;7.92;47.08;95164.81;5154710;27;20183;-75
2021/01/21 09:57:39;;;;;;;30.50;14.60;;;;;;;7.16;48.69;95170.84;5154448;27;20174;-76
2021/01/21 10:00:06;;;;;;;25.93;12.67;;;;;;;6.92;48.14;95160.75;5154495;27;20170;-75
2021/01/21 10:02:31;;;;;;;24.43;12.10;;;;;;;6.14;50.52;95162.59;5154034;27;20995;-75
2021/01/21 10:04:57;;;;;;;37.97;15.03;;;;;;;5.89;52.25;95159.53;5154518;27;20421;-75
2021/01/21 10:07:22;;;;;;;34.23;13.97;;;;;;;5.95;51.77;95144.28;5154139;27;20170;-75
2021/01/21 10:09:48;;;;;;;23.80;12.37;;;;;;;5.67;52.58;95141.88;5154470;27;20656;-75
2021/01/21 10:12:13;;;;;;;27.13;12.07;;;;;;;5.60;52.53;95146.81;5154103;27;20259;-75
2021/01/21 10:14:39;;;;;;;21.77;11.13;;;;;;;5.63;52.41;95148.09;5154362;27;20649;-75
2021/01/21 10:17:07;;;;;;;29.87;13.47;;;;;;;5.51;52.60;95144.16;5153971;27;20191;-75
2021/01/21 10:19:33;;;;;;;27.83;12.10;;;;;;;5.56;52.54;95159.13;5154107;27;20561;-76
2021/01/21 10:21:58;;;;;;;38.97;16.93;;;;;;;5.53;52.53;95141.19;5155425;27;20413;-75
2021/01/21 10:24:24;;;;;;;25.90;13.47;;;;;;;5.47;52.90;95148.50;5135807;27;20594;-75
2021/01/21 10:26:49;;;;;;;20.37;9.93;;;;;;;5.54;51.89;95148.03;5134906;27;20535;-75
2021/01/21 10:29:15;;;;;;;19.00;9.80;;;;;;;5.57;51.62;95128.91;5153521;27;20208;-74
2021/01/21 10:31:41;;;;;;;26.20;11.40;;;;;;;5.47;52.86;95129.16;5135085;27;20169;-74
2021/01/21 10:34:07;;;;;;;20.47;11.13;;;;;;;5.61;51.93;95121.09;5153544;27;20184;-75
2021/01/21 10:36:33;;;;;;;20.57;11.37;;;;;;;5.35;52.35;95115.72;5152068;27;20606;-75
2021/01/21 10:38:59;;;;;;;24.87;12.17;;;;;;;5.60;52.54;95130.13;5152971;27;20494;-74
2021/01/21 10:41:24;;;;;;;26.33;12.87;;;;;;;5.54;52.45;95117.03;5153836;27;20592;-74
2021/01/21 10:43:49;;;;;;;28.23;14.37;;;;;;;5.49;52.70;95114.53;5153422;27;20548;-75
2021/01/21 10:46:15;;;;;;;24.90;12.57;;;;;;;5.50;53.02;95125.88;5153731;27;20597;-74
2021/01/21 10:48:41;;;;;;;29.87;13.77;;;;;;;5.43;52.91;95089.25;5153452;27;20199;-74
2021/01/21 10:51:06;;;;;;;22.77;11.73;;;;;;;5.38;53.46;95123.81;5153256;27;20210;-75
2021/01/21 10:53:32;;;;;;;25.27;11.13;;;;;;;5.34;52.96;95104.38;5153811;27;20176;-76
2021/01/21 10:55:57;;;;;;;24.20;12.00;;;;;;;5.27;53.75;95104.78;5153294;27;20595;-75
2021/01/21 10:58:23;;;;;;;24.60;13.70;;;;;;;5.43;53.40;95085.84;5153356;27;20168;-75
2021/01/21 11:00:48;;;;;;;30.80;12.50;;;;;;;5.23;53.50;95095.91;5153258;27;20165;-76
2021/01/21 11:03:14;;;;;;;29.27;12.90;;;;;;;5.50;53.23;95081.69;5153230;27;20172;-76
2021/01/21 11:05:43;;;;;;;29.20;11.50;;;;;;;5.56;53.14;95088.38;5153009;27;20168;-75
2021/01/21 11:08:08;;;;;;;23.57;12.03;;;;;;;5.59;52.86;95081.69;5153221;27;20160;-75
2021/01/21 11:10:37;;;;;;;28.80;12.70;;;;;;;5.75;52.55;95082.81;5153710;27;20421;-75
2021/01/21 11:13:03;;;;;;;24.97;11.27;;;;;;;5.81;51.46;95073.63;5153312;27;20176;-76
2021/01/21 11:15:29;;;;;;;22.42;11.32;;;;;;;5.84;51.71;95078.31;5153043;27;20425;-75
2021/01/21 11:17:55;;;;;;;22.17;12.60;;;;;;;5.73;52.74;95071.75;5152891;27;20173;-75
2021/01/21 11:20:20;;;;;;;30.77;11.80;;;;;;;5.90;52.22;95071.00;5153041;27;20164;-76
2021/01/21 11:22:46;;;;;;;26.60;11.23;;;;;;;5.96;51.33;95074.31;5152916;27;20168;-75
2021/01/21 11:25:12;;;;;;;23.00;11.23;;;;;;;5.92;51.03;95044.97;5153166;27;20183;-75